sensor_id;sensor_type;location;lat;lon;timestamp;pressure;altitude;pressure_sealevel;temperature;humidity
3122;BME280;1571;52.524;14.104;2023-08-17T00:01:51;101533.69;;;18.56;100.00
3122;BME280;1571;52.524;14.104;2023-08-17T00:04:19;101525.44;;;18.69;100.00
3122;BME280;1571;52.524;14.104;2023-08-17T00:06:49;101527.75;;;18.73;100.00
3122;BME280;1571;52.524;14.104;2023-08-17T00:09:17;101529.81;;;18.49;100.00
3122;BME280;1571;52.524;14.104;2023-08-17T00:11:45;101523.66;;;18.58;100.00
3122;BME280;1571;52.524;14.104;2023-08-17T00:14:13;101521.06;;;18.57;100.00
3122;BME280;1571;52.524;14.104;2023-08-17T00:16:42;101505.44;;;18.50;100.00
3122;BME280;1571;52.524;14.104;2023-08-17T00:19:10;101506.38;;;18.40;100.00
3122;BME280;1571;52.524;14.104;2023-08-17T00:21:38;101498.53;;;18.37;100.00
3122;BME280;1571;52.524;14.104;2023-08-17T00:24:08;101501.63;;;18.32;100.00
3122;BME280;1571;52.524;14.104;2023-08-17T00:26:36;101495.25;;;18.44;100.00
3122;BME280;1571;52.524;14.104;2023-08-17T00:29:05;101486.69;;;18.39;100.00
3122;BME280;1571;52.524;14.104;2023-08-17T00:31:33;101487.34;;;18.31;100.00
3122;BME280;1571;52.524;14.104;2023-08-17T00:34:02;101493.38;;;18.24;100.00
3122;BME280;1571;52.524;14.104;2023-08-17T00:36:30;101509.97;;;18.18;100.00
3122;BME280;1571;52.524;14.104;2023-08-17T00:38:59;101505.53;;;18.28;100.00
3122;BME280;1571;52.524;14.104;2023-08-17T00:41:28;101514.88;;;18.24;100.00
3122;BME280;1571;52.524;14.104;2023-08-17T00:43:57;101508.25;;;18.17;100.00
3122;BME280;1571;52.524;14.104;2023-08-17T00:46:25;101513.63;;;18.17;100.00
3122;BME280;1571;52.524;14.104;2023-08-17T00:48:56;101515.00;;;18.11;100.00
3122;BME280;1571;52.524;14.104;2023-08-17T00:51:26;101522.66;;;18.27;100.00
3122;BME280;1571;52.524;14.104;2023-08-17T00:53:57;101528.19;;;18.03;100.00
3122;BME280;1571;52.524;14.104;2023-08-17T00:56:26;101538.09;;;18.02;100.00
3122;BME280;1571;52.524;14.104;2023-08-17T00:58:55;101534.59;;;17.91;100.00
3122;BME280;1571;52.524;14.104;2023-08-17T01:01:24;101546.63;;;18.07;100.00
3122;BME280;1571;52.524;14.104;2023-08-17T01:03:52;101537.63;;;18.08;100.00
3122;BME280;1571;52.524;14.104;2023-08-17T01:06:20;101546.63;;;18.07;100.00
3122;BME280;1571;52.524;14.104;2023-08-17T01:08:49;101553.97;;;18.05;100.00
3122;BME280;1571;52.524;14.104;2023-08-17T01:11:24;101541.53;;;18.04;100.00
3122;BME280;1571;52.524;14.104;2023-08-17T01:14:01;101548.59;;;18.05;100.00
3122;BME280;1571;52.524;14.104;2023-08-17T01:16:35;101543.97;;;17.85;100.00
3122;BME280;1571;52.524;14.104;2023-08-17T01:19:08;101537.38;;;17.66;100.00
3122;BME280;1571;52.524;14.104;2023-08-17T01:21:40;101531.38;;;17.63;100.00
3122;BME280;1571;52.524;14.104;2023-08-17T01:24:14;101516.63;;;17.57;100.00
3122;BME280;1571;52.524;14.104;2023-08-17T01:26:42;101518.81;;;17.75;100.00
3122;BME280;1571;52.524;14.104;2023-08-17T01:29:10;101512.00;;;17.59;100.00
3122;BME280;1571;52.524;14.104;2023-08-17T01:31:43;101515.41;;;17.61;100.00
3122;BME280;1571;52.524;14.104;2023-08-17T01:34:18;101513.56;;;17.62;100.00
3122;BME280;1571;52.524;14.104;2023-08-17T01:36:52;101519.31;;;17.68;100.00
3122;BME280;1571;52.524;14.104;2023-08-17T01:39:26;101513.94;;;17.68;100.00
3122;BME280;1571;52.524;14.104;2023-08-17T01:41:58;101514.44;;;17.51;100.00
3122;BME280;1571;52.524;14.104;2023-08-17T01:44:28;101505.16;;;17.66;100.00
3122;BME280;1571;52.524;14.104;2023-08-17T01:46:56;101507.84;;;17.66;100.00
3122;BME280;1571;52.524;14.104;2023-08-17T01:49:24;101507.84;;;17.66;100.00
3122;BME280;1571;52.524;14.104;2023-08-17T01:51:53;101503.69;;;17.62;100.00
3122;BME280;1571;52.524;14.104;2023-08-17T01:54:22;101501.50;;;17.56;100.00
3122;BME280;1571;52.524;14.104;2023-08-17T01:56:51;101493.47;;;17.56;100.00
3122;BME280;1571;52.524;14.104;2023-08-17T01:59:19;101491.84;;;17.54;100.00
3122;BME280;1571;52.524;14.104;2023-08-17T02:01:48;101499.06;;;17.53;100.00
3122;BME280;1571;52.524;14.104;2023-08-17T02:04:16;101490.53;;;17.48;100.00
3122;BME280;1571;52.524;14.104;2023-08-17T02:06:44;101496.13;;;17.67;100.00
3122;BME280;1571;52.524;14.104;2023-08-17T02:09:12;101496.16;;;17.56;100.00
3122;BME280;1571;52.524;14.104;2023-08-17T02:11:42;101486.09;;;17.58;100.00
3122;BME280;1571;52.524;14.104;2023-08-17T02:14:10;101490.75;;;17.45;100.00
3122;BME280;1571;52.524;14.104;2023-08-17T02:16:38;101501.25;;;17.48;100.00
3122;BME280;1571;52.524;14.104;2023-08-17T02:19:07;101503.47;;;17.65;100.00
3122;BME280;1571;52.524;14.104;2023-08-17T02:21:35;101493.94;;;17.50;100.00
3122;BME280;1571;52.524;14.104;2023-08-17T02:24:04;101491.63;;;17.34;100.00
3122;BME280;1571;52.524;14.104;2023-08-17T02:26:33;101501.16;;;17.38;100.00
3122;BME280;1571;52.524;14.104;2023-08-17T02:29:02;101498.56;;;17.48;100.00
3122;BME280;1571;52.524;14.104;2023-08-17T02:31:31;101498.09;;;17.54;100.00
3122;BME280;1571;52.524;14.104;2023-08-17T02:33:59;101495.88;;;17.48;100.00
3122;BME280;1571;52.524;14.104;2023-08-17T02:36:32;101498.47;;;17.50;100.00
3122;BME280;1571;52.524;14.104;2023-08-17T02:39:02;101489.31;;;17.41;100.00
3122;BME280;1571;52.524;14.104;2023-08-17T02:41:31;101485.03;;;17.27;100.00
3122;BME280;1571;52.524;14.104;2023-08-17T02:44:00;101478.94;;;17.25;100.00
3122;BME280;1571;52.524;14.104;2023-08-17T02:46:30;101481.00;;;17.33;100.00
3122;BME280;1571;52.524;14.104;2023-08-17T02:48:59;101487.09;;;17.35;100.00
3122;BME280;1571;52.524;14.104;2023-08-17T02:51:27;101485.63;;;17.42;100.00
3122;BME280;1571;52.524;14.104;2023-08-17T02:53:55;101480.00;;;17.45;100.00
3122;BME280;1571;52.524;14.104;2023-08-17T02:56:25;101481.13;;;17.31;100.00
3122;BME280;1571;52.524;14.104;2023-08-17T02:58:54;101475.16;;;17.39;100.00
3122;BME280;1571;52.524;14.104;2023-08-17T03:01:22;101467.31;;;17.24;100.00
3122;BME280;1571;52.524;14.104;2023-08-17T03:03:51;101465.38;;;17.26;100.00
3122;BME280;1571;52.524;14.104;2023-08-17T03:06:19;101463.69;;;17.25;100.00
3122;BME280;1571;52.524;14.104;2023-08-17T03:08:48;101462.47;;;17.18;100.00
3122;BME280;1571;52.524;14.104;2023-08-17T03:11:16;101452.47;;;17.09;100.00
3122;BME280;1571;52.524;14.104;2023-08-17T03:13:44;101458.19;;;17.16;100.00
3122;BME280;1571;52.524;14.104;2023-08-17T03:16:14;101453.53;;;17.18;100.00
3122;BME280;1571;52.524;14.104;2023-08-17T03:18:44;101454.78;;;17.14;100.00
3122;BME280;1571;52.524;14.104;2023-08-17T03:21:14;101464.03;;;17.10;100.00
3122;BME280;1571;52.524;14.104;2023-08-17T03:23:43;101453.44;;;17.19;100.00
3122;BME280;1571;52.524;14.104;2023-08-17T03:26:11;101456.00;;;17.21;100.00
3122;BME280;1571;52.524;14.104;2023-08-17T03:28:39;101447.09;;;17.09;100.00
3122;BME280;1571;52.524;14.104;2023-08-17T03:31:07;101451.47;;;16.99;100.00
3122;BME280;1571;52.524;14.104;2023-08-17T03:33:37;101460.00;;;17.15;100.00
3122;BME280;1571;52.524;14.104;2023-08-17T03:36:06;101457.56;;;17.12;100.00
3122;BME280;1571;52.524;14.104;2023-08-17T03:38:36;101461.59;;;17.06;100.00
3122;BME280;1571;52.524;14.104;2023-08-17T03:41:06;101453.66;;;16.82;100.00
3122;BME280;1571;52.524;14.104;2023-08-17T03:43:34;101458.53;;;17.00;100.00
3122;BME280;1571;52.524;14.104;2023-08-17T03:46:04;101453.16;;;17.00;100.00
3122;BME280;1571;52.524;14.104;2023-08-17T03:48:32;101451.69;;;16.84;100.00
3122;BME280;1571;52.524;14.104;2023-08-17T03:51:00;101454.50;;;16.83;100.00
3122;BME280;1571;52.524;14.104;2023-08-17T03:53:29;101454.38;;;16.84;100.00
3122;BME280;1571;52.524;14.104;2023-08-17T03:55:59;101456.03;;;16.74;100.00
3122;BME280;1571;52.524;14.104;2023-08-17T03:58:28;101448.78;;;16.88;100.00
3122;BME280;1571;52.524;14.104;2023-08-17T04:01:00;101444.03;;;16.56;100.00
3122;BME280;1571;52.524;14.104;2023-08-17T04:03:31;101442.31;;;16.55;100.00
3122;BME280;1571;52.524;14.104;2023-08-17T04:06:04;101448.88;;;16.39;100.00
3122;BME280;1571;52.524;14.104;2023-08-17T04:08:32;101441.38;;;16.67;100.00
3122;BME280;1571;52.524;14.104;2023-08-17T04:11:02;101440.63;;;16.54;100.00
3122;BME280;1571;52.524;14.104;2023-08-17T04:13:30;101444.75;;;16.47;100.00
3122;BME280;1571;52.524;14.104;2023-08-17T04:15:59;101448.41;;;16.57;100.00
3122;BME280;1571;52.524;14.104;2023-08-17T04:18:27;101443.06;;;16.57;100.00
3122;BME280;1571;52.524;14.104;2023-08-17T04:20:55;101437.44;;;16.49;100.00
3122;BME280;1571;52.524;14.104;2023-08-17T04:23:24;101446.81;;;16.54;100.00
3122;BME280;1571;52.524;14.104;2023-08-17T04:25:53;101452.03;;;16.44;100.00
3122;BME280;1571;52.524;14.104;2023-08-17T04:28:23;101451.41;;;16.76;100.00
3122;BME280;1571;52.524;14.104;2023-08-17T04:30:52;101452.84;;;16.69;100.00
3122;BME280;1571;52.524;14.104;2023-08-17T04:33:21;101455.16;;;16.62;100.00
3122;BME280;1571;52.524;14.104;2023-08-17T04:35:49;101437.19;;;16.52;100.00
3122;BME280;1571;52.524;14.104;2023-08-17T04:38:17;101442.19;;;16.56;100.00
3122;BME280;1571;52.524;14.104;2023-08-17T04:40:46;101447.72;;;16.77;100.00
3122;BME280;1571;52.524;14.104;2023-08-17T04:43:15;101450.47;;;16.89;100.00
3122;BME280;1571;52.524;14.104;2023-08-17T04:45:45;101450.16;;;16.69;100.00
3122;BME280;1571;52.524;14.104;2023-08-17T04:48:15;101449.69;;;16.75;100.00
3122;BME280;1571;52.524;14.104;2023-08-17T04:50:45;101447.97;;;16.74;100.00
3122;BME280;1571;52.524;14.104;2023-08-17T04:53:14;101437.88;;;16.78;100.00
3122;BME280;1571;52.524;14.104;2023-08-17T04:55:42;101439.94;;;16.74;99.82
3122;BME280;1571;52.524;14.104;2023-08-17T04:58:11;101435.09;;;16.79;100.00
3122;BME280;1571;52.524;14.104;2023-08-17T05:00:39;101438.44;;;16.59;100.00
3122;BME280;1571;52.524;14.104;2023-08-17T05:03:09;101453.59;;;16.71;100.00
3122;BME280;1571;52.524;14.104;2023-08-17T05:05:51;101445.03;;;16.77;99.53
3122;BME280;1571;52.524;14.104;2023-08-17T05:08:20;101447.38;;;16.71;99.63
3122;BME280;1571;52.524;14.104;2023-08-17T05:10:49;101447.66;;;16.90;100.00
3122;BME280;1571;52.524;14.104;2023-08-17T05:13:19;101454.81;;;16.78;99.75
3122;BME280;1571;52.524;14.104;2023-08-17T05:15:47;101443.03;;;16.81;100.00
3122;BME280;1571;52.524;14.104;2023-08-17T05:18:17;101437.78;;;16.91;99.12
3122;BME280;1571;52.524;14.104;2023-08-17T05:20:46;101442.22;;;17.03;99.51
3122;BME280;1571;52.524;14.104;2023-08-17T05:23:14;101452.59;;;17.19;99.39
3122;BME280;1571;52.524;14.104;2023-08-17T05:25:46;101435.13;;;17.13;98.45
3122;BME280;1571;52.524;14.104;2023-08-17T05:28:14;101435.13;;;17.02;98.86
3122;BME280;1571;52.524;14.104;2023-08-17T05:30:43;101441.47;;;17.12;99.08
3122;BME280;1571;52.524;14.104;2023-08-17T05:33:11;101443.06;;;17.15;98.52
3122;BME280;1571;52.524;14.104;2023-08-17T05:35:40;101454.91;;;17.23;98.26
3122;BME280;1571;52.524;14.104;2023-08-17T05:38:09;101446.59;;;17.26;97.57
3122;BME280;1571;52.524;14.104;2023-08-17T05:40:37;101449.28;;;17.15;97.17
3122;BME280;1571;52.524;14.104;2023-08-17T05:43:05;101446.84;;;17.12;97.78
3122;BME280;1571;52.524;14.104;2023-08-17T05:45:35;101440.38;;;17.26;97.83
3122;BME280;1571;52.524;14.104;2023-08-17T05:48:05;101439.06;;;17.20;97.29
3122;BME280;1571;52.524;14.104;2023-08-17T05:50:33;101435.13;;;17.24;97.16
3122;BME280;1571;52.524;14.104;2023-08-17T05:53:03;101437.34;;;17.19;98.03
3122;BME280;1571;52.524;14.104;2023-08-17T05:55:31;101422.81;;;17.33;97.76
3122;BME280;1571;52.524;14.104;2023-08-17T05:58:00;101422.44;;;17.26;97.85
3122;BME280;1571;52.524;14.104;2023-08-17T06:00:28;101421.84;;;17.23;98.16
3122;BME280;1571;52.524;14.104;2023-08-17T06:02:56;101426.34;;;17.45;98.24
3122;BME280;1571;52.524;14.104;2023-08-17T06:05:28;101422.19;;;17.63;97.15
3122;BME280;1571;52.524;14.104;2023-08-17T06:07:57;101425.47;;;17.44;96.00
3122;BME280;1571;52.524;14.104;2023-08-17T06:10:27;101427.31;;;17.44;96.56
3122;BME280;1571;52.524;14.104;2023-08-17T06:12:55;101427.16;;;17.68;96.30
3122;BME280;1571;52.524;14.104;2023-08-17T06:15:24;101436.34;;;17.54;96.07
3122;BME280;1571;52.524;14.104;2023-08-17T06:17:52;101430.59;;;17.70;95.83
3122;BME280;1571;52.524;14.104;2023-08-17T06:20:21;101439.72;;;17.79;95.51
3122;BME280;1571;52.524;14.104;2023-08-17T06:22:49;101425.56;;;17.77;96.11
3122;BME280;1571;52.524;14.104;2023-08-17T06:25:17;101437.75;;;17.92;96.56
3122;BME280;1571;52.524;14.104;2023-08-17T06:27:48;101448.19;;;18.18;96.25
3122;BME280;1571;52.524;14.104;2023-08-17T06:30:17;101448.63;;;18.23;95.27
3122;BME280;1571;52.524;14.104;2023-08-17T06:32:46;101465.94;;;18.30;93.74
3122;BME280;1571;52.524;14.104;2023-08-17T06:35:14;101469.31;;;18.43;93.01
3122;BME280;1571;52.524;14.104;2023-08-17T06:37:42;101472.91;;;18.65;92.61
3122;BME280;1571;52.524;14.104;2023-08-17T06:40:11;101481.88;;;18.75;91.58
3122;BME280;1571;52.524;14.104;2023-08-17T06:42:39;101486.97;;;18.89;91.12
3122;BME280;1571;52.524;14.104;2023-08-17T06:45:09;101490.16;;;19.04;90.14
3122;BME280;1571;52.524;14.104;2023-08-17T06:47:37;101496.69;;;19.32;89.19
3122;BME280;1571;52.524;14.104;2023-08-17T06:50:06;101494.09;;;19.21;88.46
3122;BME280;1571;52.524;14.104;2023-08-17T06:52:38;101504.41;;;19.47;87.28
3122;BME280;1571;52.524;14.104;2023-08-17T06:55:08;101512.53;;;19.05;87.72
3122;BME280;1571;52.524;14.104;2023-08-17T06:57:36;101512.22;;;19.19;89.19
3122;BME280;1571;52.524;14.104;2023-08-17T07:00:06;101524.66;;;19.20;88.74
3122;BME280;1571;52.524;14.104;2023-08-17T07:02:37;101532.13;;;19.38;87.55
3122;BME280;1571;52.524;14.104;2023-08-17T07:05:19;101522.16;;;19.90;86.65
3122;BME280;1571;52.524;14.104;2023-08-17T07:07:47;101528.13;;;19.93;85.28
3122;BME280;1571;52.524;14.104;2023-08-17T07:10:16;101522.50;;;20.06;84.40
3122;BME280;1571;52.524;14.104;2023-08-17T07:12:44;101517.22;;;19.64;84.79
3122;BME280;1571;52.524;14.104;2023-08-17T07:15:12;101507.66;;;19.81;84.99
3122;BME280;1571;52.524;14.104;2023-08-17T07:17:42;101498.19;;;19.56;85.84
3122;BME280;1571;52.524;14.104;2023-08-17T07:20:10;101504.16;;;19.29;87.43
3122;BME280;1571;52.524;14.104;2023-08-17T07:22:43;101498.94;;;19.27;88.29
3122;BME280;1571;52.524;14.104;2023-08-17T07:25:11;101493.50;;;19.18;89.09
3122;BME280;1571;52.524;14.104;2023-08-17T07:27:40;101495.94;;;19.21;90.12
3122;BME280;1571;52.524;14.104;2023-08-17T07:30:10;101489.78;;;19.40;89.17
3122;BME280;1571;52.524;14.104;2023-08-17T07:32:38;101493.38;;;19.50;88.40
3122;BME280;1571;52.524;14.104;2023-08-17T07:35:08;101492.50;;;19.49;88.44
3122;BME280;1571;52.524;14.104;2023-08-17T07:37:36;101493.28;;;19.61;88.64
3122;BME280;1571;52.524;14.104;2023-08-17T07:40:06;101494.53;;;19.57;89.07
3122;BME280;1571;52.524;14.104;2023-08-17T07:42:34;101498.03;;;19.79;88.60
3122;BME280;1571;52.524;14.104;2023-08-17T07:45:03;101493.66;;;19.97;87.72
3122;BME280;1571;52.524;14.104;2023-08-17T07:47:34;101501.75;;;19.97;88.22
3122;BME280;1571;52.524;14.104;2023-08-17T07:50:03;101502.94;;;20.43;86.58
3122;BME280;1571;52.524;14.104;2023-08-17T07:52:33;101513.44;;;20.46;85.91
3122;BME280;1571;52.524;14.104;2023-08-17T07:55:01;101512.75;;;20.54;85.73
3122;BME280;1571;52.524;14.104;2023-08-17T07:57:31;101524.66;;;20.32;84.03
3122;BME280;1571;52.524;14.104;2023-08-17T07:59:59;101530.19;;;20.30;85.21
3122;BME280;1571;52.524;14.104;2023-08-17T08:02:34;101520.41;;;20.29;85.97
3122;BME280;1571;52.524;14.104;2023-08-17T08:05:02;101521.66;;;20.25;85.79
3122;BME280;1571;52.524;14.104;2023-08-17T08:07:30;101527.84;;;19.96;87.05
3122;BME280;1571;52.524;14.104;2023-08-17T08:10:00;101511.72;;;20.06;88.06
3122;BME280;1571;52.524;14.104;2023-08-17T08:12:30;101514.38;;;19.87;89.28
3122;BME280;1571;52.524;14.104;2023-08-17T08:14:58;101515.53;;;20.04;89.07
3122;BME280;1571;52.524;14.104;2023-08-17T08:17:26;101506.47;;;20.14;88.93
3122;BME280;1571;52.524;14.104;2023-08-17T08:19:55;101507.19;;;20.16;88.90
3122;BME280;1571;52.524;14.104;2023-08-17T08:22:24;101511.31;;;20.30;89.29
3122;BME280;1571;52.524;14.104;2023-08-17T08:24:53;101500.53;;;20.21;89.11
3122;BME280;1571;52.524;14.104;2023-08-17T08:27:22;101508.63;;;20.40;87.99
3122;BME280;1571;52.524;14.104;2023-08-17T08:29:51;101497.72;;;20.51;87.48
3122;BME280;1571;52.524;14.104;2023-08-17T08:32:19;101499.28;;;20.64;87.85
3122;BME280;1571;52.524;14.104;2023-08-17T08:34:48;101499.44;;;20.72;87.07
3122;BME280;1571;52.524;14.104;2023-08-17T08:37:16;101498.97;;;20.86;85.01
3122;BME280;1571;52.524;14.104;2023-08-17T08:39:48;101497.91;;;21.26;84.76
3122;BME280;1571;52.524;14.104;2023-08-17T08:42:16;101502.00;;;21.30;85.16
3122;BME280;1571;52.524;14.104;2023-08-17T08:44:47;101502.34;;;20.98;85.27
3122;BME280;1571;52.524;14.104;2023-08-17T08:47:17;101494.44;;;21.34;85.06
3122;BME280;1571;52.524;14.104;2023-08-17T08:49:50;101498.88;;;21.25;85.22
3122;BME280;1571;52.524;14.104;2023-08-17T08:52:23;101494.84;;;21.49;86.58
3122;BME280;1571;52.524;14.104;2023-08-17T08:54:57;101500.72;;;21.72;85.25
3122;BME280;1571;52.524;14.104;2023-08-17T08:57:27;101499.06;;;21.61;85.17
3122;BME280;1571;52.524;14.104;2023-08-17T08:59:58;101513.38;;;21.44;85.53
3122;BME280;1571;52.524;14.104;2023-08-17T09:02:27;101499.72;;;21.35;84.79
3122;BME280;1571;52.524;14.104;2023-08-17T09:04:56;101501.13;;;21.39;85.13
3122;BME280;1571;52.524;14.104;2023-08-17T09:07:26;101499.41;;;21.38;85.29
3122;BME280;1571;52.524;14.104;2023-08-17T09:09:56;101496.06;;;21.64;85.23
3122;BME280;1571;52.524;14.104;2023-08-17T09:12:25;101491.97;;;21.60;85.40
3122;BME280;1571;52.524;14.104;2023-08-17T09:15:08;101487.47;;;21.51;85.27
3122;BME280;1571;52.524;14.104;2023-08-17T09:17:37;101482.19;;;21.77;84.89
3122;BME280;1571;52.524;14.104;2023-08-17T09:20:07;101477.25;;;22.36;83.99
3122;BME280;1571;52.524;14.104;2023-08-17T09:22:37;101478.66;;;22.40;83.54
3122;BME280;1571;52.524;14.104;2023-08-17T09:25:06;101475.69;;;22.51;83.76
3122;BME280;1571;52.524;14.104;2023-08-17T09:27:36;101470.66;;;22.74;82.06
3122;BME280;1571;52.524;14.104;2023-08-17T09:30:06;101464.72;;;22.97;81.35
3122;BME280;1571;52.524;14.104;2023-08-17T09:32:36;101462.09;;;23.05;81.63
3122;BME280;1571;52.524;14.104;2023-08-17T09:35:06;101459.72;;;22.84;82.03
3122;BME280;1571;52.524;14.104;2023-08-17T09:37:34;101451.31;;;22.69;82.05
3122;BME280;1571;52.524;14.104;2023-08-17T09:40:03;101431.25;;;23.32;81.51
3122;BME280;1571;52.524;14.104;2023-08-17T09:42:34;101427.13;;;23.20;81.10
3122;BME280;1571;52.524;14.104;2023-08-17T09:45:03;101421.28;;;23.83;81.47
3122;BME280;1571;52.524;14.104;2023-08-17T09:47:32;101426.41;;;24.03;79.40
3122;BME280;1571;52.524;14.104;2023-08-17T09:50:05;101431.03;;;23.68;79.21
3122;BME280;1571;52.524;14.104;2023-08-17T09:52:38;101421.63;;;23.80;78.76
3122;BME280;1571;52.524;14.104;2023-08-17T09:55:07;101429.66;;;23.64;79.59
3122;BME280;1571;52.524;14.104;2023-08-17T09:57:38;101425.53;;;23.43;80.17
3122;BME280;1571;52.524;14.104;2023-08-17T10:00:08;101410.69;;;23.13;80.33
3122;BME280;1571;52.524;14.104;2023-08-17T10:02:38;101421.22;;;22.98;81.45
3122;BME280;1571;52.524;14.104;2023-08-17T10:05:11;101417.41;;;23.43;81.70
3122;BME280;1571;52.524;14.104;2023-08-17T10:07:43;101410.25;;;23.26;81.23
3122;BME280;1571;52.524;14.104;2023-08-17T10:10:16;101400.16;;;23.53;80.71
3122;BME280;1571;52.524;14.104;2023-08-17T10:12:53;101390.50;;;24.25;79.57
3122;BME280;1571;52.524;14.104;2023-08-17T10:15:33;101395.22;;;23.82;80.18
3122;BME280;1571;52.524;14.104;2023-08-17T10:18:09;101393.31;;;23.75;80.15
3122;BME280;1571;52.524;14.104;2023-08-17T10:20:54;101396.09;;;23.48;80.27
3122;BME280;1571;52.524;14.104;2023-08-17T10:23:30;101398.63;;;24.01;79.48
3122;BME280;1571;52.524;14.104;2023-08-17T10:26:00;101398.00;;;23.64;80.14
3122;BME280;1571;52.524;14.104;2023-08-17T10:28:30;101398.94;;;23.89;80.86
3122;BME280;1571;52.524;14.104;2023-08-17T10:30:59;101385.03;;;24.75;79.49
3122;BME280;1571;52.524;14.104;2023-08-17T10:33:28;101385.41;;;24.39;78.65
3122;BME280;1571;52.524;14.104;2023-08-17T10:36:00;101389.78;;;24.07;80.06
3122;BME280;1571;52.524;14.104;2023-08-17T10:38:28;101386.38;;;23.80;80.38
3122;BME280;1571;52.524;14.104;2023-08-17T10:41:08;101381.66;;;23.90;80.22
3122;BME280;1571;52.524;14.104;2023-08-17T10:43:56;101383.84;;;23.79;81.25
3122;BME280;1571;52.524;14.104;2023-08-17T10:46:34;101387.41;;;23.96;81.19
3122;BME280;1571;52.524;14.104;2023-08-17T10:49:03;101382.00;;;24.20;79.49
3122;BME280;1571;52.524;14.104;2023-08-17T10:51:34;101380.97;;;24.54;78.25
3122;BME280;1571;52.524;14.104;2023-08-17T10:54:03;101367.44;;;25.10;77.72
3122;BME280;1571;52.524;14.104;2023-08-17T10:56:32;101377.16;;;24.88;76.65
3122;BME280;1571;52.524;14.104;2023-08-17T10:59:01;101367.34;;;24.79;76.81
3122;BME280;1571;52.524;14.104;2023-08-17T11:01:33;101365.84;;;25.32;76.43
3122;BME280;1571;52.524;14.104;2023-08-17T11:04:09;101363.56;;;25.04;75.60
3122;BME280;1571;52.524;14.104;2023-08-17T11:06:39;101365.69;;;25.25;76.65
3122;BME280;1571;52.524;14.104;2023-08-17T11:09:07;101366.50;;;25.34;77.51
3122;BME280;1571;52.524;14.104;2023-08-17T11:11:36;101355.66;;;24.86;75.67
3122;BME280;1571;52.524;14.104;2023-08-17T11:14:04;101356.22;;;24.49;78.16
3122;BME280;1571;52.524;14.104;2023-08-17T11:16:33;101358.91;;;24.41;77.45
3122;BME280;1571;52.524;14.104;2023-08-17T11:19:01;101368.63;;;23.94;79.67
3122;BME280;1571;52.524;14.104;2023-08-17T11:21:29;101361.94;;;23.72;79.49
3122;BME280;1571;52.524;14.104;2023-08-17T11:23:59;101364.31;;;23.67;80.76
3122;BME280;1571;52.524;14.104;2023-08-17T11:26:27;101360.22;;;23.63;81.67
3122;BME280;1571;52.524;14.104;2023-08-17T11:29:02;101366.69;;;23.70;81.74
3122;BME280;1571;52.524;14.104;2023-08-17T11:31:31;101356.91;;;23.85;80.94
3122;BME280;1571;52.524;14.104;2023-08-17T11:34:00;101359.63;;;24.10;79.87
3122;BME280;1571;52.524;14.104;2023-08-17T11:36:28;101357.25;;;23.82;80.06
3122;BME280;1571;52.524;14.104;2023-08-17T11:38:59;101362.31;;;23.77;80.45
3122;BME280;1571;52.524;14.104;2023-08-17T11:41:27;101363.69;;;23.89;80.55
3122;BME280;1571;52.524;14.104;2023-08-17T11:43:55;101363.34;;;24.09;80.03
3122;BME280;1571;52.524;14.104;2023-08-17T11:46:23;101357.75;;;24.02;79.94
3122;BME280;1571;52.524;14.104;2023-08-17T11:48:58;101359.94;;;24.07;79.84
3122;BME280;1571;52.524;14.104;2023-08-17T11:51:30;101353.34;;;24.34;78.31
3122;BME280;1571;52.524;14.104;2023-08-17T11:54:00;101357.47;;;24.94;78.29
3122;BME280;1571;52.524;14.104;2023-08-17T11:56:30;101351.81;;;24.31;78.24
3122;BME280;1571;52.524;14.104;2023-08-17T11:58:59;101360.13;;;24.14;78.31
3122;BME280;1571;52.524;14.104;2023-08-17T12:01:37;101365.72;;;24.04;78.83
3122;BME280;1571;52.524;14.104;2023-08-17T12:04:06;101362.31;;;24.43;79.03
3122;BME280;1571;52.524;14.104;2023-08-17T12:06:36;101367.09;;;24.49;78.79
3122;BME280;1571;52.524;14.104;2023-08-17T12:09:10;101363.84;;;24.29;78.31
3122;BME280;1571;52.524;14.104;2023-08-17T12:11:40;101362.28;;;24.67;78.75
3122;BME280;1571;52.524;14.104;2023-08-17T12:14:10;101356.19;;;24.73;78.39
3122;BME280;1571;52.524;14.104;2023-08-17T12:16:48;101360.97;;;24.39;77.66
3122;BME280;1571;52.524;14.104;2023-08-17T12:19:16;101353.16;;;24.60;77.65
3122;BME280;1571;52.524;14.104;2023-08-17T12:21:45;101345.84;;;24.69;78.80
3122;BME280;1571;52.524;14.104;2023-08-17T12:24:14;101345.53;;;25.20;77.30
3122;BME280;1571;52.524;14.104;2023-08-17T12:26:43;101337.63;;;24.85;75.77
3122;BME280;1571;52.524;14.104;2023-08-17T12:29:13;101346.31;;;24.81;76.10
3122;BME280;1571;52.524;14.104;2023-08-17T12:31:41;101349.22;;;25.27;76.54
3122;BME280;1571;52.524;14.104;2023-08-17T12:34:10;101346.19;;;25.13;75.96
3122;BME280;1571;52.524;14.104;2023-08-17T12:36:38;101339.47;;;25.87;75.91
3122;BME280;1571;52.524;14.104;2023-08-17T12:39:06;101343.72;;;25.35;75.79
3122;BME280;1571;52.524;14.104;2023-08-17T12:41:35;101341.34;;;24.92;74.98
3122;BME280;1571;52.524;14.104;2023-08-17T12:44:04;101340.03;;;25.28;74.79
3122;BME280;1571;52.524;14.104;2023-08-17T12:46:32;101337.00;;;25.14;74.66
3122;BME280;1571;52.524;14.104;2023-08-17T12:49:01;101342.22;;;25.64;75.95
3122;BME280;1571;52.524;14.104;2023-08-17T12:51:29;101337.00;;;25.54;75.15
3122;BME280;1571;52.524;14.104;2023-08-17T12:53:58;101331.25;;;25.18;75.75
3122;BME280;1571;52.524;14.104;2023-08-17T12:56:26;101330.94;;;25.44;75.64
3122;BME280;1571;52.524;14.104;2023-08-17T12:58:55;101326.72;;;25.41;75.29
3122;BME280;1571;52.524;14.104;2023-08-17T13:01:29;101316.72;;;25.65;74.69
3122;BME280;1571;52.524;14.104;2023-08-17T13:03:57;101320.81;;;25.84;75.76
3122;BME280;1571;52.524;14.104;2023-08-17T13:06:25;101319.38;;;25.73;74.16
3122;BME280;1571;52.524;14.104;2023-08-17T13:09:13;101321.19;;;26.04;74.71